Time;durP1;ratioP1;P1;durP2;ratioP2;P2;SDS_P1;SDS_P2;PMS_P1;PMS_P2;Temp;Humidity;BMP_temperature;BMP_pressure;BME280_temperature;BME280_humidity;BME280_pressure;Samples;Min_cycle;Max_cycle;Signal;HPM_P1;HPM_P2
2023/05/10 00:01:00;;;;;;;20.23;10.55;;;;;;;16.21;70.39;100931.16;4996426;28;20037;-79
2023/05/10 00:03:25;;;;;;;20.98;10.77;;;;;;;16.16;70.67;100928.53;5000641;28;20058;-79
2023/05/10 00:05:50;;;;;;;19.33;10.38;;;;;;;16.14;70.46;100934.72;4982450;28;20065;-81
2023/05/10 00:08:19;;;;;;;20.58;10.63;;;;;;;16.10;70.55;100928.59;4997462;28;20038;-79
2023/05/10 00:10:47;;;;;;;20.83;10.48;;;;;;;16.10;70.41;100925.09;4991405;28;20041;-81
2023/05/10 00:13:13;;;;;;;20.02;10.15;;;;;;;16.07;70.71;100918.09;4995547;28;20034;-79
2023/05/10 00:15:41;;;;;;;23.70;11.10;;;;;;;16.02;71.33;100914.66;5003042;28;20026;-80
2023/05/10 00:18:16;;;;;;;24.05;11.82;;;;;;;16.02;71.04;100914.66;4986349;28;20039;-79
2023/05/10 00:20:41;;;;;;;20.33;11.15;;;;;;;15.93;71.56;100913.81;4992058;28;20112;-80
2023/05/10 00:23:19;;;;;;;21.90;11.07;;;;;;;15.91;71.53;100916.50;5005008;28;20065;-79
2023/05/10 00:25:44;;;;;;;21.05;10.45;;;;;;;15.99;70.76;100921.66;4994802;28;20034;-80
2023/05/10 00:28:10;;;;;;;21.02;11.13;;;;;;;15.93;71.34;100916.47;5001090;28;20034;-79
2023/05/10 00:30:38;;;;;;;21.42;10.85;;;;;;;15.94;71.12;100921.72;5003495;28;20116;-78
2023/05/10 00:33:04;;;;;;;23.05;10.80;;;;;;;15.92;70.99;100918.22;5036378;28;20053;-78
2023/05/10 00:35:32;;;;;;;21.45;11.13;;;;;;;15.90;70.78;100908.63;5016144;28;20093;-78
2023/05/10 00:37:57;;;;;;;23.23;11.35;;;;;;;15.87;70.85;100909.50;5016378;28;20047;-78
2023/05/10 00:40:25;;;;;;;23.17;11.20;;;;;;;15.85;70.61;100911.28;5026790;28;20089;-77
2023/05/10 00:42:58;;;;;;;21.45;10.70;;;;;;;15.81;70.82;100918.31;5004412;28;20038;-79
2023/05/10 00:45:23;;;;;;;25.67;12.13;;;;;;;15.80;70.87;100915.69;4994396;28;20034;-78
2023/05/10 00:47:49;;;;;;;31.38;13.25;;;;;;;15.81;70.66;100909.53;4991216;28;20046;-78
2023/05/10 00:50:23;;;;;;;33.72;14.32;;;;;;;15.78;71.04;100913.09;4998252;28;20034;-80
2023/05/10 00:52:51;;;;;;;;;;;;;;;15.83;70.91;100923.56;5002909;28;20055;-77
2023/05/10 00:55:26;;;;;;;27.77;12.80;;;;;;;15.87;70.78;100917.38;4990192;28;19914;-79
2023/05/10 00:57:52;;;;;;;30.63;13.80;;;;;;;15.89;70.88;100931.41;4997269;28;20105;-79
2023/05/10 01:00:18;;;;;;;33.50;14.88;;;;;;;15.91;71.36;100929.63;5004206;28;20030;-79
2023/05/10 01:02:50;;;;;;;44.45;17.95;;;;;;;15.93;71.96;100932.22;5003678;28;20456;-79
2023/05/10 01:05:15;;;;;;;48.55;20.35;;;;;;;15.91;72.45;100940.16;5001933;28;20048;-79
2023/05/10 01:07:41;;;;;;;62.05;20.48;;;;;;;15.99;72.31;100938.31;5001779;28;20097;-80
2023/05/10 01:10:15;;;;;;;51.67;19.73;;;;;;;16.06;72.23;100942.66;5001247;28;20033;-80
2023/05/10 01:12:43;;;;;;;60.47;19.60;;;;;;;16.05;72.44;100943.53;4998051;28;20050;-80
2023/05/10 01:15:10;;;;;;;103.95;19.40;;;;;;;16.02;72.90;100959.34;4997007;28;20491;-79
2023/05/10 01:17:42;;;;;;;110.55;17.70;;;;;;;15.98;72.97;100949.72;5003056;28;20089;-79
2023/05/10 01:20:09;;;;;;;48.78;16.63;;;;;;;16.19;72.44;100949.56;4988913;28;20042;-78
2023/05/10 01:23:12;;;;;;;77.38;16.73;;;;;;;16.20;72.45;100951.31;4993717;28;20036;-78
2023/05/10 01:26:17;;;;;;;106.13;16.88;;;;;;;16.19;72.68;100948.69;4993971;28;20050;-80
2023/05/10 01:29:01;;;;;;;;;;;;;;;16.35;72.49;100946.78;4996113;28;20042;-78
2023/05/10 01:32:04;;;;;;;52.30;15.00;;;;;;;16.37;72.09;100951.16;5004577;28;19914;-79
2023/05/10 01:35:10;;;;;;;54.83;15.80;;;;;;;16.42;72.02;100954.63;5007866;28;20057;-79
2023/05/10 01:37:45;;;;;;;54.17;16.15;;;;;;;16.45;72.25;100959.88;5024035;28;20042;-79
2023/05/10 01:40:31;;;;;;;68.35;16.70;;;;;;;16.36;72.82;100962.56;5000303;28;20045;-79
2023/05/10 01:43:02;;;;;;;91.55;17.50;;;;;;;16.04;74.22;100968.09;5002116;28;23109;-80
2023/05/10 01:45:33;;;;;;;98.22;18.20;;;;;;;16.18;73.92;100963.59;5004611;28;20027;-78
2023/05/10 01:48:09;;;;;;;62.95;17.50;;;;;;;16.39;73.32;100969.56;5010032;28;20044;-80
2023/05/10 01:50:41;;;;;;;72.15;17.73;;;;;;;16.05;74.39;100980.34;5004839;28;20048;-78
2023/05/10 01:53:09;;;;;;;63.42;17.48;;;;;;;16.21;74.64;100973.22;5005593;28;20137;-79
2023/05/10 01:55:47;;;;;;;69.10;18.48;;;;;;;16.36;73.78;100975.72;5016970;28;20101;-79
2023/05/10 01:58:22;;;;;;;67.10;17.55;;;;;;;16.41;73.66;100980.94;5001846;28;20037;-80
2023/05/10 02:00:50;;;;;;;78.35;18.90;;;;;;;16.26;74.15;100978.44;4990594;28;20030;-78
2023/05/10 02:03:18;;;;;;;51.55;17.00;;;;;;;16.58;73.34;100979.91;4998045;28;20065;-80
2023/05/10 02:05:49;;;;;;;60.05;17.85;;;;;;;16.50;73.54;100981.75;4998037;28;20042;-79
2023/05/10 02:08:17;;;;;;;71.28;19.50;;;;;;;16.39;73.77;100980.09;5007297;28;20034;-79
2023/05/10 02:10:44;;;;;;;67.45;18.10;;;;;;;16.26;74.52;100986.34;5006895;28;20513;-80
2023/05/10 02:13:11;;;;;;;69.88;18.90;;;;;;;16.28;74.59;100987.22;5009584;28;20037;-81
2023/05/10 02:15:38;;;;;;;72.38;18.90;;;;;;;16.29;74.73;100986.31;5002769;28;20030;-82
2023/05/10 02:18:11;;;;;;;73.22;19.48;;;;;;;16.32;74.61;100983.66;4999044;28;20037;-81
2023/05/10 02:20:37;;;;;;;67.40;19.20;;;;;;;16.44;74.49;100987.06;5003200;28;20507;-80
2023/05/10 02:23:09;;;;;;;71.95;19.50;;;;;;;16.33;74.42;100988.91;4993520;28;20034;-79
2023/05/10 02:25:35;;;;;;;66.13;18.98;;;;;;;16.52;74.16;100992.25;5001523;28;20041;-79
2023/05/10 02:28:03;;;;;;;55.33;18.88;;;;;;;16.41;74.70;100989.69;4995327;28;20458;-79
2023/05/10 02:30:31;;;;;;;63.78;19.20;;;;;;;16.57;74.05;100993.09;5014338;28;20034;-79
2023/05/10 02:32:57;;;;;;;71.70;19.98;;;;;;;16.39;74.62;100994.13;5004360;28;20042;-79
2023/05/10 02:35:27;;;;;;;56.72;19.20;;;;;;;16.61;74.42;100990.44;4999048;28;20116;-79
2023/05/10 02:37:53;;;;;;;59.47;20.02;;;;;;;16.57;74.12;100985.19;4988391;28;20041;-79
2023/05/10 02:40:21;;;;;;;58.88;18.98;;;;;;;16.11;75.27;100995.22;5013614;28;20051;-78
2023/05/10 02:42:48;;;;;;;58.97;20.38;;;;;;;16.10;75.74;100999.59;5001185;28;20034;-78
2023/05/10 02:45:19;;;;;;;63.50;21.00;;;;;;;16.28;75.10;100990.72;5004687;28;20483;-80
2023/05/10 02:47:44;;;;;;;64.20;21.17;;;;;;;16.39;75.27;100999.38;5015370;28;20018;-80
2023/05/10 02:50:10;;;;;;;62.15;21.08;;;;;;;16.40;75.08;101001.16;5015804;28;20045;-78
2023/05/10 02:52:47;;;;;;;61.40;22.02;;;;;;;16.43;74.61;101000.22;5023994;28;20039;-80
2023/05/10 02:55:15;;;;;;;55.92;21.40;;;;;;;16.38;74.99;100996.75;5006954;28;20040;-81
2023/05/10 02:57:46;;;;;;;55.28;19.73;;;;;;;16.26;74.97;100997.75;5005865;28;20097;-80
2023/05/10 03:00:14;;;;;;;67.78;23.42;;;;;;;16.36;74.70;101001.16;5014719;28;20021;-79
2023/05/10 03:02:45;;;;;;;63.42;22.38;;;;;;;16.50;74.30;100994.91;5004657;28;20045;-80
2023/05/10 03:05:20;;;;;;;69.28;23.42;;;;;;;16.49;74.23;101000.16;4998444;28;20048;-79
2023/05/10 03:07:46;;;;;;;58.15;21.50;;;;;;;16.37;74.57;101000.28;5000844;28;20041;-79
2023/05/10 03:10:11;;;;;;;67.88;22.95;;;;;;;16.29;74.87;101000.31;5002218;28;20034;-79
2023/05/10 03:13:14;;;;;;;58.22;21.40;;;;;;;16.35;74.78;100996.78;4999849;28;20030;-79
2023/05/10 03:15:58;;;;;;;57.78;22.08;;;;;;;16.50;74.38;101000.16;5011237;28;20128;-79
2023/05/10 03:18:36;;;;;;;56.85;22.50;;;;;;;16.66;73.90;101000.03;5000367;28;20034;-80
2023/05/10 03:21:08;;;;;;;58.40;22.50;;;;;;;16.70;74.08;100996.50;4998572;28;20069;-80
2023/05/10 03:23:50;;;;;;;43.75;19.00;;;;;;;16.81;73.51;101002.53;4995126;28;20052;-79
2023/05/10 03:26:23;;;;;;;42.53;19.25;;;;;;;16.79;73.23;100999.91;5002377;28;20033;-78
2023/05/10 03:28:55;;;;;;;45.05;20.02;;;;;;;16.69;73.77;101007.94;4992143;28;20034;-79
2023/05/10 03:31:21;;;;;;;52.17;21.40;;;;;;;16.40;75.21;101010.78;4994748;28;20436;-78
2023/05/10 03:33:50;;;;;;;50.30;21.48;;;;;;;16.69;74.10;101008.81;5001612;28;20042;-79
2023/05/10 03:36:16;;;;;;;54.25;22.73;;;;;;;16.56;74.39;101013.28;5006339;28;20487;-80
2023/05/10 03:38:53;;;;;;;51.22;22.08;;;;;;;16.32;74.81;101015.22;5009605;28;20040;-79
2023/05/10 03:41:21;;;;;;;43.45;19.15;;;;;;;16.42;74.08;101017.78;4997882;28;20034;-79
2023/05/10 03:43:46;;;;;;;44.25;19.33;;;;;;;16.46;74.14;101016.00;5001114;28;20121;-79
2023/05/10 03:46:21;;;;;;;48.17;20.92;;;;;;;16.47;74.05;101012.47;5001272;28;20141;-79
2023/05/10 03:48:46;;;;;;;;;;;;;;;16.47;74.08;101009.81;4999679;28;20487;-78
2023/05/10 03:51:11;;;;;;;37.47;16.57;;;;;;;16.76;72.90;101020.16;5003957;28;19917;-79
2023/05/10 03:53:37;;;;;;;43.50;18.60;;;;;;;16.69;72.17;101015.81;5003319;28;20280;-79
2023/05/10 03:56:08;;;;;;;34.22;16.85;;;;;;;16.73;73.07;101018.41;4997079;28;20030;-79
2023/05/10 03:58:33;;;;;;;40.80;19.10;;;;;;;16.81;72.71;101010.44;4994026;28;20034;-79
2023/05/10 04:01:11;;;;;;;35.47;17.33;;;;;;;16.98;72.08;101011.13;5002276;28;20504;-79
2023/05/10 04:03:36;;;;;;;45.53;20.60;;;;;;;16.63;73.12;101020.25;4996985;28;20091;-81
2023/05/10 04:06:05;;;;;;;47.47;21.45;;;;;;;16.63;73.01;101029.91;5009612;28;20034;-79
2023/05/10 04:08:36;;;;;;;47.88;23.52;;;;;;;16.51;73.50;101019.47;5012164;28;20038;-78
2023/05/10 04:11:12;;;;;;;46.78;23.05;;;;;;;16.42;73.78;101024.78;4994116;28;20373;-78
2023/05/10 04:13:37;;;;;;;48.53;23.58;;;;;;;16.14;74.43;101022.38;4995640;28;20300;-82
2023/05/10 04:16:03;;;;;;;45.95;21.52;;;;;;;16.36;74.11;101027.47;5000945;28;20400;-79
2023/05/10 04:18:30;;;;;;;38.88;19.05;;;;;;;16.23;74.23;101040.72;4996199;28;20062;-79
2023/05/10 04:20:55;;;;;;;36.10;17.27;;;;;;;16.01;74.73;101041.75;4997095;28;20038;-78
2023/05/10 04:23:21;;;;;;;44.08;20.17;;;;;;;16.17;74.13;101032.88;4999890;28;20231;-79
2023/05/10 04:25:46;;;;;;;42.30;19.85;;;;;;;16.22;74.22;101040.75;4995191;28;20043;-79
2023/05/10 04:28:11;;;;;;;34.78;16.10;;;;;;;16.31;73.72;101035.41;4990880;28;20034;-78
2023/05/10 04:30:40;;;;;;;37.42;15.50;;;;;;;16.38;73.44;101028.34;5002448;28;20037;-81
2023/05/10 04:33:05;;;;;;;47.47;16.50;;;;;;;16.26;73.35;101028.44;5007184;28;20044;-80
2023/05/10 04:35:31;;;;;;;59.50;15.90;;;;;;;16.17;73.77;101043.38;4996806;28;20030;-79
2023/05/10 04:37:56;;;;;;;53.13;16.45;;;;;;;16.22;73.62;101043.38;4993736;28;20128;-80
2023/05/10 04:40:21;;;;;;;45.92;15.15;;;;;;;16.22;73.50;101046.84;5003448;28;20543;-78
2023/05/10 04:42:47;;;;;;;42.45;13.32;;;;;;;16.07;74.22;101051.34;5001156;28;20088;-80
2023/05/10 04:45:22;;;;;;;32.50;13.45;;;;;;;16.29;73.64;101052.94;5004479;28;20026;-80
2023/05/10 04:47:47;;;;;;;38.25;13.38;;;;;;;16.33;73.20;101051.19;5014090;28;20041;-82
2023/05/10 04:50:12;;;;;;;51.47;15.25;;;;;;;16.11;74.00;101058.34;5016960;28;20025;-79
2023/05/10 04:52:38;;;;;;;42.65;15.30;;;;;;;16.18;73.98;101050.41;5010336;28;20030;-79
2023/05/10 04:55:09;;;;;;;41.22;16.00;;;;;;;16.38;73.32;101050.25;5017828;28;20050;-80
2023/05/10 04:57:37;;;;;;;46.20;15.65;;;;;;;16.34;73.40;101045.91;5025401;28;20034;-78
2023/05/10 05:00:09;;;;;;;35.22;14.73;;;;;;;16.40;73.38;101055.53;5009315;28;20038;-78
2023/05/10 05:02:37;;;;;;;40.55;16.08;;;;;;;16.29;73.73;101060.84;5006619;28;20033;-78
2023/05/10 05:05:09;;;;;;;30.15;11.95;;;;;;;16.07;74.11;101065.38;4994589;28;20149;-78
2023/05/10 05:07:38;;;;;;;27.20;10.80;;;;;;;16.20;73.75;101063.56;4999645;28;20043;-78
2023/05/10 05:10:08;;;;;;;26.08;10.73;;;;;;;16.04;73.83;101070.63;5000786;28;20034;-79
2023/05/10 05:12:36;;;;;;;28.85;10.70;;;;;;;16.08;73.96;101072.41;5000043;28;20030;-78
2023/05/10 05:15:02;;;;;;;26.60;10.57;;;;;;;15.93;74.36;101075.09;4999977;28;20056;-78
2023/05/10 05:17:30;;;;;;;25.27;10.32;;;;;;;16.03;74.18;101078.56;5001529;28;20030;-79
2023/05/10 05:19:55;;;;;;;25.98;9.35;;;;;;;15.90;74.33;101082.13;5000909;28;20061;-78
2023/05/10 05:22:27;;;;;;;24.38;9.95;;;;;;;15.89;74.43;101085.66;5016921;28;20026;-78
2023/05/10 05:24:56;;;;;;;22.90;8.70;;;;;;;15.61;75.38;101083.16;5015920;28;20064;-79
2023/05/10 05:27:23;;;;;;;23.02;8.63;;;;;;;15.75;75.15;101096.22;5024659;28;20025;-78
2023/05/10 05:29:56;;;;;;;20.83;8.40;;;;;;;16.22;73.66;101094.19;5017309;28;20042;-78
2023/05/10 05:32:22;;;;;;;21.30;8.57;;;;;;;16.13;73.93;101091.66;5019986;28;20065;-79
2023/05/10 05:34:48;;;;;;;18.88;7.82;;;;;;;16.45;72.97;101091.44;5010267;28;20018;-80
2023/05/10 05:37:21;;;;;;;20.45;7.90;;;;;;;16.01;73.20;101090.84;5016932;28;20085;-78
2023/05/10 05:39:46;;;;;;;19.33;8.25;;;;;;;16.20;73.27;101098.63;5002758;28;20098;-78
2023/05/10 05:42:13;;;;;;;20.40;8.18;;;;;;;16.54;72.82;101101.00;5007519;28;20096;-80
2023/05/10 05:44:41;;;;;;;18.08;7.97;;;;;;;16.60;72.54;101101.00;5013107;28;20044;-80
2023/05/10 05:47:06;;;;;;;17.25;7.60;;;;;;;16.82;72.04;101099.97;5000816;28;20050;-79
2023/05/10 05:49:34;;;;;;;15.88;6.78;;;;;;;16.91;72.00;101107.75;5006075;28;20054;-79
2023/05/10 05:52:03;;;;;;;16.75;7.43;;;;;;;16.69;72.69;101103.56;5006160;28;20029;-79
2023/05/10 05:54:30;;;;;;;15.43;7.13;;;;;;;16.71;71.74;101099.16;5023930;28;20048;-78
2023/05/10 05:57:00;;;;;;;15.63;6.75;;;;;;;16.92;71.58;101100.75;5011618;28;20026;-79
2023/05/10 05:59:26;;;;;;;15.35;6.88;;;;;;;16.93;72.04;101110.38;5009222;28;20033;-80
2023/05/10 06:01:52;;;;;;;15.43;7.38;;;;;;;16.74;72.24;101114.94;5002033;28;20042;-78
2023/05/10 06:04:18;;;;;;;13.77;7.05;;;;;;;16.81;72.32;101111.38;5005851;28;20037;-78
2023/05/10 06:06:43;;;;;;;14.65;6.63;;;;;;;16.69;72.57;101111.47;5003986;28;20033;-80
2023/05/10 06:09:24;;;;;;;13.27;6.40;;;;;;;16.74;72.03;101114.06;5005586;28;20038;-79
2023/05/10 06:11:49;;;;;;;12.13;6.18;;;;;;;16.97;72.25;101117.38;5001585;28;20042;-78
2023/05/10 06:14:15;;;;;;;10.57;6.05;;;;;;;17.09;71.10;101111.09;5005476;28;20041;-79
2023/05/10 06:16:46;;;;;;;10.65;5.97;;;;;;;17.13;71.47;101111.09;4998484;28;20399;-78
2023/05/10 06:19:14;;;;;;;9.73;5.80;;;;;;;17.58;71.32;101112.34;5007321;28;20041;-78
2023/05/10 06:21:39;;;;;;;9.25;5.60;;;;;;;17.41;70.31;101116.94;5001411;28;21186;-81
2023/05/10 06:24:06;;;;;;;9.45;4.90;;;;;;;18.00;69.63;101118.00;5005028;28;20046;-79
2023/05/10 06:26:35;;;;;;;6.82;4.43;;;;;;;17.87;68.65;101119.94;5000299;28;20441;-78
2023/05/10 06:29:06;;;;;;;6.57;4.53;;;;;;;17.76;69.53;101113.91;4999060;28;20044;-79
2023/05/10 06:31:32;;;;;;;5.93;4.53;;;;;;;18.07;68.39;101117.03;5009003;28;20455;-78
2023/05/10 06:34:00;;;;;;;6.10;4.15;;;;;;;18.33;66.23;101116.69;4999469;28;21466;-80
2023/05/10 06:36:26;;;;;;;5.10;4.10;;;;;;;18.03;67.65;101121.50;5009455;28;20387;-79
2023/05/10 06:38:51;;;;;;;6.53;4.38;;;;;;;17.97;68.35;101118.06;5006257;28;20418;-79
2023/05/10 06:41:17;;;;;;;5.93;4.20;;;;;;;18.07;67.95;101123.19;5003484;28;20032;-78
2023/05/10 06:43:43;;;;;;;6.68;4.45;;;;;;;18.05;67.75;101118.84;5005735;28;20049;-78
2023/05/10 06:46:08;;;;;;;6.55;4.57;;;;;;;18.17;67.01;101123.97;5014391;28;20049;-78
2023/05/10 06:48:36;;;;;;;6.75;4.63;;;;;;;17.93;67.81;101117.22;5009636;28;20058;-78
2023/05/10 06:51:07;;;;;;;6.65;4.60;;;;;;;18.07;68.48;101122.31;4996676;28;20038;-79
2023/05/10 06:53:36;;;;;;;7.13;4.75;;;;;;;18.04;68.27;101117.09;5016256;28;20053;-77
2023/05/10 06:56:02;;;;;;;7.05;4.47;;;;;;;17.81;68.59;101120.88;5006755;28;20040;-79
2023/05/10 06:58:28;;;;;;;9.45;4.82;;;;;;;17.86;69.46;101123.50;5033140;28;20025;-77
2023/05/10 07:01:04;;;;;;;9.52;5.10;;;;;;;17.29;70.25;101128.47;5011398;28;20057;-77
2023/05/10 07:03:30;;;;;;;7.53;4.68;;;;;;;17.78;69.44;101133.25;5013748;28;20039;-76
2023/05/10 07:06:03;;;;;;;6.80;4.32;;;;;;;17.77;69.14;101142.03;5015206;28;20328;-80
2023/05/10 07:08:31;;;;;;;7.07;4.43;;;;;;;18.09;68.16;101144.28;4995978;28;20038;-77
2023/05/10 07:11:15;;;;;;;6.75;4.43;;;;;;;17.93;67.60;101143.59;4999705;28;20053;-76
2023/05/10 07:13:46;;;;;;;9.18;4.80;;;;;;;17.93;67.33;101146.22;4993593;28;20104;-77
2023/05/10 07:16:11;;;;;;;8.40;4.95;;;;;;;17.62;68.08;101145.75;4999428;28;20504;-78
2023/05/10 07:18:36;;;;;;;9.05;4.97;;;;;;;17.89;68.36;101144.53;4999452;28;20047;-77
2023/05/10 07:21:08;;;;;;;8.30;5.13;;;;;;;17.91;68.80;101145.41;4995490;28;20442;-79
2023/05/10 07:23:36;;;;;;;9.27;5.10;;;;;;;18.30;68.09;101151.06;4999102;28;20034;-79
2023/05/10 07:26:07;;;;;;;7.63;4.80;;;;;;;18.12;67.67;101142.47;4993312;28;20077;-78
2023/05/10 07:28:38;;;;;;;7.95;4.43;;;;;;;18.19;67.91;101149.41;5015944;28;20045;-78
2023/05/10 07:31:07;;;;;;;8.00;4.50;;;;;;;18.27;67.23;101153.72;4993189;28;20057;-79
2023/05/10 07:33:32;;;;;;;7.22;4.00;;;;;;;17.87;67.95;101161.28;4996832;28;20033;-79
2023/05/10 07:36:07;;;;;;;8.02;4.05;;;;;;;17.90;68.22;101158.59;4993941;28;20042;-80
2023/05/10 07:38:38;;;;;;;6.38;4.03;;;;;;;17.85;68.71;101158.66;5010652;28;20026;-80
2023/05/10 07:41:06;;;;;;;8.27;4.07;;;;;;;18.09;67.32;101162.75;4997612;28;20041;-79
2023/05/10 07:43:31;;;;;;;6.30;4.22;;;;;;;17.64;68.17;101164.16;5002670;28;20034;-78
2023/05/10 07:45:59;;;;;;;7.65;4.32;;;;;;;17.54;69.04;101163.38;4991346;28;20120;-81
2023/05/10 07:48:24;;;;;;;7.88;4.80;;;;;;;17.41;69.77;101162.63;5001790;28;20039;-79
2023/05/10 07:50:53;;;;;;;7.18;4.70;;;;;;;17.75;68.33;101167.53;4998869;28;20033;-79
2023/05/10 07:53:21;;;;;;;7.45;4.75;;;;;;;18.03;68.04;101162.84;4999219;28;20045;-79
2023/05/10 07:55:58;;;;;;;7.32;4.90;;;;;;;17.87;68.25;101156.00;4993969;28;20217;-78
2023/05/10 07:58:24;;;;;;;8.80;5.55;;;;;;;17.62;68.82;101163.34;4997884;28;20026;-80
2023/05/10 08:00:50;;;;;;;8.00;5.18;;;;;;;17.88;68.28;101169.16;4997801;28;20061;-78
2023/05/10 08:03:15;;;;;;;8.38;4.80;;;;;;;18.20;67.90;101171.41;4989725;28;20093;-82
2023/05/10 08:05:41;;;;;;;8.15;4.70;;;;;;;17.91;69.42;101166.50;4999797;28;20077;-79
2023/05/10 08:08:06;;;;;;;7.80;4.25;;;;;;;18.05;68.92;101167.19;4995455;28;20030;-78
2023/05/10 08:10:32;;;;;;;7.03;4.07;;;;;;;18.09;67.95;101179.47;4999528;28;20045;-79
2023/05/10 08:12:58;;;;;;;5.45;3.50;;;;;;;18.60;67.43;101171.78;4997561;28;20554;-78
2023/05/10 08:15:29;;;;;;;8.20;4.20;;;;;;;18.88;66.59;101174.84;5003573;28;20073;-81
2023/05/10 08:17:55;;;;;;;6.25;3.50;;;;;;;18.75;65.87;101182.09;4991482;28;20177;-80
2023/05/10 08:20:20;;;;;;;5.35;3.75;;;;;;;18.70;65.69;101180.41;4996725;28;20532;-76
2023/05/10 08:22:46;;;;;;;5.55;3.60;;;;;;;18.92;65.81;101181.81;4984600;28;20495;-80
2023/05/10 08:25:11;;;;;;;4.97;3.55;;;;;;;18.97;65.01;101179.97;4993776;28;20186;-77
2023/05/10 08:27:37;;;;;;;3.67;2.70;;;;;;;19.21;63.60;101179.56;4989665;28;20137;-76
2023/05/10 08:30:06;;;;;;;4.40;2.80;;;;;;;19.30;63.85;101192.63;4997894;28;20056;-78
2023/05/10 08:32:31;;;;;;;4.15;3.05;;;;;;;19.15;63.25;101194.69;4994171;28;20029;-76
2023/05/10 08:34:57;;;;;;;5.47;2.90;;;;;;;19.58;62.01;101190.38;4986566;28;20539;-77
2023/05/10 08:37:23;;;;;;;4.25;3.10;;;;;;;19.43;62.19;101193.28;5000617;28;20037;-79
2023/05/10 08:39:48;;;;;;;4.68;3.00;;;;;;;19.18;63.24;101194.59;4985051;28;20049;-76
2023/05/10 08:42:19;;;;;;;6.15;3.30;;;;;;;18.95;64.65;101197.63;5000550;28;20036;-78
2023/05/10 08:44:47;;;;;;;5.50;3.40;;;;;;;18.96;65.31;101199.38;4990616;28;20034;-78
2023/05/10 08:47:16;;;;;;;4.20;3.25;;;;;;;18.68;65.26;101203.31;4988891;28;20032;-79
2023/05/10 08:49:48;;;;;;;4.35;3.33;;;;;;;19.00;64.77;101206.34;4976652;28;20093;-80
2023/05/10 08:52:17;;;;;;;6.13;3.50;;;;;;;18.72;64.50;101215.63;4979173;28;20030;-77
2023/05/10 08:54:43;;;;;;;6.47;3.70;;;;;;;18.42;66.12;101212.44;4978616;28;20048;-77
2023/05/10 08:57:12;;;;;;;7.35;3.83;;;;;;;18.71;65.47;101222.66;4978662;28;20046;-78
2023/05/10 08:59:39;;;;;;;5.20;3.60;;;;;;;18.46;66.13;101231.78;4975347;28;20040;-76
2023/05/10 09:02:05;;;;;;;4.82;3.33;;;;;;;18.04;67.56;101236.69;4972133;28;20027;-79
2023/05/10 09:04:39;;;;;;;4.57;3.20;;;;;;;18.06;68.07;101237.53;4976730;28;20039;-78
2023/05/10 09:07:08;;;;;;;5.40;3.60;;;;;;;17.99;68.92;101232.38;4970761;28;20038;-79
2023/05/10 09:09:34;;;;;;;4.65;3.47;;;;;;;18.17;69.44;101237.44;4971706;28;20035;-78
2023/05/10 09:11:59;;;;;;;6.32;3.95;;;;;;;18.47;69.04;101239.69;4973382;28;20085;-80
2023/05/10 09:14:26;;;;;;;6.20;4.13;;;;;;;18.49;68.39;101242.28;4976952;28;20031;-78
2023/05/10 09:16:53;;;;;;;6.85;4.28;;;;;;;18.54;69.03;101245.75;4978575;28;20088;-79
2023/05/10 09:19:22;;;;;;;7.30;4.38;;;;;;;18.48;69.31;101241.41;4974219;28;20624;-78
2023/05/10 09:21:48;;;;;;;6.65;4.72;;;;;;;18.55;67.51;101240.47;4981474;28;20046;-78
2023/05/10 09:24:28;;;;;;;7.25;4.72;;;;;;;19.28;66.75;101249.94;4970122;28;20027;-79
2023/05/10 09:27:00;;;;;;;8.88;5.70;;;;;;;19.07;67.23;101246.78;4968857;28;20558;-79
2023/05/10 09:29:25;;;;;;;9.10;5.15;;;;;;;19.09;67.72;101245.84;4976827;28;20034;-78
2023/05/10 09:31:54;;;;;;;9.23;5.80;;;;;;;19.66;64.50;101249.31;4976913;28;20395;-78
2023/05/10 09:34:29;;;;;;;9.18;5.68;;;;;;;19.37;63.95;101247.16;4974034;28;20119;-79
2023/05/10 09:36:57;;;;;;;10.50;6.13;;;;;;;19.75;64.12;101245.66;4981907;28;20035;-78
2023/05/10 09:39:33;;;;;;;10.48;5.70;;;;;;;19.60;63.28;101256.47;4978916;28;20178;-80
2023/05/10 09:42:23;;;;;;;9.20;5.25;;;;;;;20.47;61.97;101258.34;4975582;28;20044;-79
2023/05/10 09:45:00;;;;;;;9.60;5.13;;;;;;;20.03;61.86;101257.44;4981153;28;20030;-80
2023/05/10 09:47:26;;;;;;;9.30;5.15;;;;;;;20.62;61.09;101256.22;4989135;28;20042;-80
2023/05/10 09:49:57;;;;;;;7.78;5.07;;;;;;;20.62;61.33;101253.59;4985159;28;20039;-77
2023/05/10 09:52:23;;;;;;;7.88;4.90;;;;;;;20.60;59.48;101250.13;4982552;28;20030;-79
2023/05/10 09:54:54;;;;;;;9.32;5.70;;;;;;;20.88;57.72;101255.66;4975755;28;20092;-80
2023/05/10 09:57:24;;;;;;;9.35;5.20;;;;;;;20.42;58.76;101260.22;4972428;28;20037;-78
2023/05/10 09:59:50;;;;;;;11.10;5.68;;;;;;;20.34;61.17;101268.31;4982549;28;20038;-79
2023/05/10 10:02:16;;;;;;;11.30;6.20;;;;;;;20.25;60.11;101261.41;4981773;28;20086;-77
2023/05/10 10:04:42;;;;;;;10.88;6.13;;;;;;;20.18;60.98;101267.75;4976368;28;20045;-78
2023/05/10 10:07:08;;;;;;;12.48;6.72;;;;;;;20.21;60.86;101262.38;4982056;28;20035;-78
2023/05/10 10:09:34;;;;;;;15.35;7.57;;;;;;;19.82;61.80;101274.59;4974709;28;20045;-79
2023/05/10 10:12:01;;;;;;;15.70;7.72;;;;;;;19.37;62.42;101275.34;4977745;28;20424;-78
2023/05/10 10:14:28;;;;;;;16.05;7.45;;;;;;;19.59;61.99;101271.47;4989717;28;20033;-78
2023/05/10 10:16:56;;;;;;;15.23;7.32;;;;;;;19.55;62.73;101276.84;4975658;28;20034;-79
2023/05/10 10:19:22;;;;;;;14.10;7.30;;;;;;;19.39;64.71;101273.56;4983586;28;20042;-78
2023/05/10 10:21:49;;;;;;;12.20;6.93;;;;;;;18.83;64.85;101283.22;4983717;28;20451;-79
2023/05/10 10:24:15;;;;;;;12.57;6.75;;;;;;;18.35;65.87;101281.19;4976250;28;20034;-78
2023/05/10 10:26:42;;;;;;;12.45;6.45;;;;;;;19.21;63.86;101284.44;4971839;28;20042;-78
2023/05/10 10:29:39;;;;;;;14.40;6.43;;;;;;;18.74;66.14;101287.75;4978521;28;20065;-82
2023/05/10 10:32:21;;;;;;;11.70;6.00;;;;;;;18.58;65.55;101285.34;4977847;28;20048;-78
2023/05/10 10:34:47;;;;;;;9.88;5.68;;;;;;;18.89;62.98;101287.56;4974782;28;20526;-77
2023/05/10 10:37:18;;;;;;;11.60;6.53;;;;;;;18.15;65.56;101286.69;4981628;28;20039;-80
2023/05/10 10:39:44;;;;;;;12.30;6.57;;;;;;;18.20;65.78;101296.31;4975974;28;20162;-79
2023/05/10 10:42:09;;;;;;;13.23;7.28;;;;;;;18.19;65.66;101297.19;4976254;28;20126;-80
2023/05/10 10:44:37;;;;;;;12.73;6.55;;;;;;;18.41;65.45;101302.25;4979707;28;20169;-79
2023/05/10 10:47:28;;;;;;;12.23;7.13;;;;;;;18.41;66.19;101299.59;4976336;28;20062;-78
2023/05/10 10:50:00;;;;;;;12.82;7.35;;;;;;;18.64;65.97;101306.38;4975710;28;20085;-78
2023/05/10 10:52:30;;;;;;;16.48;7.25;;;;;;;18.66;65.92;101302.84;4978756;28;20035;-79
2023/05/10 10:55:02;;;;;;;13.95;6.90;;;;;;;18.94;63.99;101305.09;4977156;28;20062;-79
2023/05/10 10:57:31;;;;;;;14.68;7.70;;;;;;;18.47;64.65;101305.69;4983404;28;20061;-78
2023/05/10 11:00:21;;;;;;;16.15;7.65;;;;;;;18.44;65.50;101304.84;4985779;28;20068;-77
2023/05/10 11:02:49;;;;;;;12.70;6.65;;;;;;;18.23;66.70;101309.50;4983522;28;20567;-80
2023/05/10 11:05:25;;;;;;;11.75;6.65;;;;;;;17.99;68.01;101314.16;4975266;28;20053;-80
2023/05/10 11:07:59;;;;;;;12.50;6.88;;;;;;;18.26;67.09;101308.56;4976282;28;20092;-80
2023/05/10 11:10:26;;;;;;;13.25;7.13;;;;;;;18.05;68.34;101316.72;4981901;28;20065;-80
2023/05/10 11:13:09;;;;;;;9.65;6.20;;;;;;;18.24;66.07;101313.84;4981843;28;20042;-78
2023/05/10 11:15:48;;;;;;;11.73;6.93;;;;;;;18.19;67.02;101320.94;4975657;28;20030;-81
2023/05/10 11:18:23;;;;;;;10.88;6.55;;;;;;;17.82;67.54;101320.44;4974545;28;20162;-79
2023/05/10 11:20:56;;;;;;;14.48;7.20;;;;;;;17.83;68.97;101319.56;4974562;28;20046;-79
2023/05/10 11:23:31;;;;;;;10.30;6.63;;;;;;;17.53;68.66;101325.06;4971614;28;20031;-78
2023/05/10 11:26:05;;;;;;;13.55;7.00;;;;;;;17.76;68.64;101315.22;4974291;28;20045;-78
2023/05/10 11:28:45;;;;;;;12.23;6.90;;;;;;;17.82;68.41;101315.16;4978071;28;20034;-81